createdAt,value
2022-09-25T00:01:18.321Z,0.93
2022-09-25T00:03:47.891Z,1.23
2022-09-25T00:06:17.592Z,1.10
2022-09-25T00:08:46.221Z,1.10
2022-09-25T00:11:16.599Z,1.07
2022-09-25T00:13:45.869Z,1.13
2022-09-25T00:16:16.087Z,0.93
2022-09-25T00:19:02.036Z,0.80
2022-09-25T00:21:33.271Z,0.93
2022-09-25T00:24:03.731Z,1.13
2022-09-25T00:26:34.465Z,1.20
2022-09-25T00:29:02.989Z,0.80
2022-09-25T00:31:31.852Z,1.53
2022-09-25T00:34:03.501Z,1.57
2022-09-25T00:36:33.900Z,1.00
2022-09-25T00:39:02.030Z,1.23
2022-09-25T00:41:32.331Z,1.33
2022-09-25T00:44:01.743Z,1.60
2022-09-25T00:46:32.849Z,1.23
2022-09-25T00:49:04.093Z,1.07
2022-09-25T00:51:41.261Z,1.00
2022-09-25T00:54:14.563Z,1.03
2022-09-25T00:56:45.652Z,1.20
2022-09-25T00:59:19.102Z,1.27
2022-09-25T01:01:47.611Z,1.83
2022-09-25T01:04:16.532Z,1.17
2022-09-25T01:06:45.835Z,1.53
2022-09-25T01:09:13.754Z,0.90
2022-09-25T01:11:41.678Z,1.23
2022-09-25T01:14:11.171Z,1.40
2022-09-25T01:16:45.327Z,1.00
2022-09-25T01:19:23.173Z,1.70
2022-09-25T01:21:55.753Z,1.37
2022-09-25T01:24:45.604Z,1.33
2022-09-25T01:27:40.752Z,1.23
2022-09-25T01:30:14.837Z,1.30
2022-09-25T01:32:54.810Z,1.30
2022-09-25T01:35:33.255Z,1.00
2022-09-25T01:38:11.615Z,1.20
2022-09-25T01:40:49.941Z,1.17
2022-09-25T01:43:21.353Z,0.93
2022-09-25T01:45:54.530Z,1.27
2022-09-25T01:48:27.289Z,1.00
2022-09-25T01:51:01.221Z,1.10
2022-09-25T01:53:34.708Z,1.20
2022-09-25T01:56:07.482Z,2.10
2022-09-25T01:58:40.215Z,2.03
2022-09-25T02:01:13.144Z,1.60
2022-09-25T02:03:45.046Z,1.50
2022-09-25T02:06:19.752Z,1.13
2022-09-25T02:08:53.970Z,1.20
2022-09-25T02:11:22.482Z,1.43
2022-09-25T02:13:53.717Z,1.00
2022-09-25T02:16:28.898Z,1.27
2022-09-25T02:19:14.202Z,0.93
2022-09-25T02:21:50.498Z,0.73
2022-09-25T02:24:22.978Z,0.90
2022-09-25T02:26:52.320Z,1.23
2022-09-25T02:29:21.409Z,1.20
2022-09-25T02:31:55.028Z,1.60
2022-09-25T02:34:23.296Z,1.27
2022-09-25T02:36:51.298Z,1.20
2022-09-25T02:39:23.245Z,1.07
2022-09-25T02:42:02.666Z,1.40
2022-09-25T02:44:40.959Z,1.17
2022-09-25T02:47:23.073Z,1.03
2022-09-25T02:50:00.956Z,1.10
2022-09-25T02:52:34.958Z,0.97
2022-09-25T02:55:08.067Z,0.60
2022-09-25T02:57:43.370Z,0.97
2022-09-25T03:00:13.388Z,1.20
2022-09-25T03:02:49.600Z,1.10
2022-09-25T03:05:20.804Z,1.10
2022-09-25T03:08:06.367Z,0.90
2022-09-25T03:10:36.548Z,0.80
2022-09-25T03:13:15.227Z,1.03
2022-09-25T03:15:46.725Z,0.73
2022-09-25T03:18:16.873Z,1.17
2022-09-25T03:20:44.906Z,1.40
2022-09-25T03:23:12.934Z,1.53
2022-09-25T03:25:44.707Z,1.00
2022-09-25T03:28:17.109Z,1.13
2022-09-25T03:30:45.657Z,1.83
2022-09-25T03:33:16.771Z,1.87
2022-09-25T03:35:44.699Z,1.60
2022-09-25T03:38:12.653Z,1.20
2022-09-25T03:40:41.355Z,1.60
2022-09-25T03:45:36.188Z,0.90
2022-09-25T03:48:04.115Z,1.60
2022-09-25T03:50:33.496Z,1.67
2022-09-25T03:53:01.422Z,1.43
2022-09-25T03:55:29.352Z,1.57
2022-09-25T03:57:57.281Z,1.27
2022-09-25T04:00:25.232Z,1.50
2022-09-25T04:02:53.216Z,1.73
2022-09-25T04:05:21.375Z,1.40
2022-09-25T04:07:50.707Z,1.67
2022-09-25T04:10:18.678Z,1.77
2022-09-25T04:12:46.610Z,1.90
2022-09-25T04:15:15.299Z,1.43
2022-09-25T04:17:43.251Z,2.00
2022-09-25T04:20:11.316Z,2.47
2022-09-25T04:22:39.259Z,2.03
2022-09-25T04:25:10.061Z,1.47
2022-09-25T04:27:38.246Z,1.60
2022-09-25T04:30:07.387Z,1.80
2022-09-25T04:32:52.740Z,1.60
2022-09-25T04:35:20.660Z,2.90
2022-09-25T04:37:48.633Z,2.00
2022-09-25T04:40:18.239Z,2.10
2022-09-25T04:42:46.219Z,2.03
2022-09-25T04:45:14.764Z,3.13
2022-09-25T04:47:42.728Z,2.67
2022-09-25T04:50:10.834Z,2.23
2022-09-25T04:52:39.132Z,2.20
2022-09-25T04:55:07.771Z,3.00
2022-09-25T04:57:57.965Z,2.13
2022-09-25T05:00:27.009Z,2.60
2022-09-25T05:02:55.203Z,2.80
2022-09-25T05:05:27.294Z,2.20
2022-09-25T05:07:56.559Z,3.50
2022-09-25T05:10:27.308Z,3.27
2022-09-25T05:12:58.242Z,2.07
2022-09-25T05:15:26.794Z,2.90
2022-09-25T05:18:01.120Z,2.50
2022-09-25T05:20:29.446Z,2.73
2022-09-25T05:22:58.232Z,2.67
2022-09-25T05:25:26.883Z,2.50
2022-09-25T05:27:58.168Z,2.27
2022-09-25T05:30:29.213Z,3.30
2022-09-25T05:32:59.294Z,3.10
2022-09-25T05:35:28.686Z,2.20
2022-09-25T05:37:56.911Z,2.30
2022-09-25T05:40:25.706Z,3.23
2022-09-25T05:42:55.186Z,2.53
2022-09-25T05:45:24.362Z,2.80
2022-09-25T05:48:02.972Z,2.30
2022-09-25T05:50:32.505Z,2.10
2022-09-25T05:53:01.914Z,2.30
2022-09-25T05:55:30.784Z,3.60
2022-09-25T05:58:02.282Z,1.70
2022-09-25T06:00:32.786Z,2.40
2022-09-25T06:03:03.064Z,2.17
2022-09-25T06:05:31.176Z,3.70
2022-09-25T06:07:59.112Z,2.60
2022-09-25T06:10:27.462Z,3.40
2022-09-25T06:12:58.864Z,2.80
2022-09-25T06:15:27.978Z,3.30
2022-09-25T06:17:56.142Z,2.77
2022-09-25T06:20:25.737Z,3.10
2022-09-25T06:22:54.588Z,2.70
2022-09-25T06:25:23.827Z,2.90
2022-09-25T06:27:54.618Z,2.00
2022-09-25T06:30:23.257Z,3.80
2022-09-25T06:32:57.139Z,2.70
2022-09-25T06:35:26.517Z,2.93
2022-09-25T06:37:57.967Z,3.20
2022-09-25T06:40:28.046Z,4.30
2022-09-25T06:42:59.178Z,3.17
2022-09-25T06:45:27.977Z,2.70
2022-09-25T06:48:00.941Z,3.37
2022-09-25T06:50:35.661Z,2.93
2022-09-25T06:53:03.613Z,2.90
2022-09-25T06:55:32.764Z,2.93
2022-09-25T06:58:00.688Z,2.17
2022-09-25T07:00:28.895Z,2.87
2022-09-25T07:03:16.096Z,4.10
2022-09-25T07:05:45.725Z,2.80
2022-09-25T07:08:16.065Z,2.37
2022-09-25T07:10:49.275Z,3.30
2022-09-25T07:13:17.826Z,3.30
2022-09-25T07:15:52.744Z,4.10
2022-09-25T07:18:20.761Z,3.50
2022-09-25T07:20:50.257Z,3.17
2022-09-25T07:23:19.646Z,2.60
2022-09-25T07:25:48.252Z,2.47
2022-09-25T07:28:18.970Z,4.13
2022-09-25T07:30:47.867Z,2.43
2022-09-25T07:33:16.243Z,2.93
2022-09-25T07:35:44.179Z,1.77
2022-09-25T07:38:13.819Z,3.13
2022-09-25T07:40:41.976Z,1.63
2022-09-25T07:43:09.932Z,3.10
2022-09-25T07:45:38.738Z,3.07
2022-09-25T07:48:07.264Z,2.90
2022-09-25T07:50:35.349Z,2.27
2022-09-25T07:53:03.281Z,2.07
2022-09-25T07:55:32.550Z,3.67
2022-09-25T07:58:00.478Z,2.47
2022-09-25T08:00:28.453Z,2.90
2022-09-25T08:03:00.252Z,2.97
2022-09-25T08:05:28.643Z,3.10
2022-09-25T08:07:56.657Z,3.50
2022-09-25T08:10:24.669Z,2.97
2022-09-25T08:12:54.213Z,2.67
2022-09-25T08:15:22.618Z,4.07
2022-09-25T08:17:50.546Z,2.40
2022-09-25T08:20:18.586Z,2.33
2022-09-25T08:22:47.605Z,3.03
2022-09-25T08:25:15.669Z,3.20
2022-09-25T08:27:43.610Z,3.40
2022-09-25T08:30:13.888Z,1.90
2022-09-25T08:32:41.862Z,1.40
2022-09-25T08:35:10.611Z,1.73
2022-09-25T08:37:42.629Z,2.90
2022-09-25T08:40:19.183Z,2.30
2022-09-25T08:42:49.692Z,1.50
2022-09-25T08:45:56.848Z,2.37
2022-09-25T08:48:47.067Z,2.00
2022-09-25T08:51:15.232Z,2.37
2022-09-25T08:53:44.756Z,2.30
2022-09-25T08:56:21.252Z,3.13
2022-09-25T08:58:55.934Z,2.07
2022-09-25T09:01:28.125Z,1.70
2022-09-25T09:04:05.453Z,1.80
2022-09-25T09:06:34.859Z,1.80
2022-09-25T09:09:08.894Z,2.00
2022-09-25T09:11:40.558Z,2.67
2022-09-25T09:14:15.677Z,1.80
2022-09-25T09:16:49.306Z,2.20
2022-09-25T09:19:17.326Z,1.90
2022-09-25T09:21:51.294Z,1.40
2022-09-25T09:24:26.414Z,2.10
2022-09-25T09:27:07.163Z,1.27
2022-09-25T09:29:49.422Z,2.20
2022-09-25T09:32:33.228Z,1.73
2022-09-25T09:35:13.328Z,4.00
2022-09-25T09:37:55.586Z,2.20
2022-09-25T09:40:47.232Z,1.87
2022-09-25T09:43:31.458Z,2.60
2022-09-25T09:46:06.734Z,2.70
2022-09-25T09:48:41.607Z,2.20
2022-09-25T09:51:15.083Z,1.73
2022-09-25T09:53:47.507Z,2.03
2022-09-25T09:56:19.958Z,2.07
2022-09-25T09:58:52.375Z,2.27
2022-09-25T10:04:16.913Z,3.20
2022-09-25T10:06:48.199Z,2.10
2022-09-25T10:09:17.606Z,1.60
2022-09-25T10:11:47.821Z,2.60
2022-09-25T10:14:21.297Z,1.73
2022-09-25T10:16:51.013Z,3.03
2022-09-25T10:19:22.935Z,2.80
2022-09-25T10:21:54.097Z,2.33
2022-09-25T10:24:49.757Z,2.30
2022-09-25T10:27:29.405Z,2.10
2022-09-25T10:30:14.942Z,3.20
2022-09-25T10:32:46.659Z,2.80
2022-09-25T10:35:19.047Z,2.90
2022-09-25T10:37:49.940Z,2.77
2022-09-25T10:40:33.391Z,1.83
2022-09-25T10:43:17.405Z,1.50
2022-09-25T10:45:46.036Z,1.80
2022-09-25T10:48:49.336Z,1.93
2022-09-25T10:51:21.303Z,1.80
2022-09-25T10:53:51.124Z,2.40
2022-09-25T10:56:22.350Z,1.37
2022-09-25T10:58:55.641Z,2.83
2022-09-25T11:01:30.907Z,1.43
2022-09-25T11:03:59.798Z,2.57
2022-09-25T11:06:32.948Z,2.70
2022-09-25T11:09:08.217Z,1.57
2022-09-25T11:11:39.067Z,2.10
2022-09-25T11:14:09.349Z,1.77
2022-09-25T11:16:47.404Z,1.97
2022-09-25T11:19:17.585Z,1.70
2022-09-25T11:21:56.874Z,2.27
2022-09-25T11:24:29.789Z,1.57
2022-09-25T11:27:08.080Z,2.10
2022-09-25T11:29:46.410Z,2.43
2022-09-25T11:32:23.178Z,1.83
2022-09-25T11:35:05.326Z,2.10
2022-09-25T11:37:41.038Z,2.40
2022-09-25T11:40:45.407Z,2.53
2022-09-25T11:43:16.830Z,2.30
2022-09-25T11:45:49.730Z,2.63
2022-09-25T11:48:25.119Z,1.83
2022-09-25T11:51:04.702Z,1.47
2022-09-25T11:53:40.214Z,2.10
2022-09-25T11:56:20.246Z,2.30
2022-09-25T11:59:04.733Z,1.47
2022-09-25T12:01:37.489Z,2.70
2022-09-25T12:04:41.501Z,2.13
2022-09-25T12:07:19.653Z,2.30
2022-09-25T12:10:12.229Z,2.10
2022-09-25T12:12:46.962Z,2.57
2022-09-25T12:15:22.329Z,1.50
2022-09-25T12:18:00.579Z,2.07
2022-09-25T12:20:36.061Z,2.27
2022-09-25T12:23:15.741Z,1.77
2022-09-25T12:26:01.207Z,2.17
2022-09-25T12:28:40.728Z,1.67
2022-09-25T12:31:17.261Z,2.87
2022-09-25T12:33:52.428Z,0.93
2022-09-25T12:36:24.327Z,2.23
2022-09-25T12:38:58.409Z,1.83
2022-09-25T12:41:33.363Z,2.50
2022-09-25T12:44:06.681Z,2.03
2022-09-25T12:46:43.344Z,1.83
2022-09-25T12:49:14.821Z,1.53
2022-09-25T12:51:46.628Z,1.30
2022-09-25T12:54:23.803Z,1.40
2022-09-25T12:56:57.981Z,2.23
2022-09-25T12:59:31.873Z,1.70
2022-09-25T13:02:05.858Z,2.30
2022-09-25T13:04:50.153Z,1.93
2022-09-25T13:07:24.866Z,1.50
2022-09-25T13:09:52.820Z,2.00
2022-09-25T13:12:33.176Z,2.17
2022-09-25T13:15:06.822Z,1.67
2022-09-25T13:17:35.198Z,1.60
2022-09-25T13:20:42.559Z,1.77
2022-09-25T13:23:14.389Z,2.17
2022-09-25T13:25:45.076Z,1.60
2022-09-25T13:28:22.805Z,2.10
2022-09-25T13:31:09.493Z,1.80
2022-09-25T13:33:48.640Z,1.90
2022-09-25T13:36:37.850Z,1.40
2022-09-25T13:39:25.701Z,1.30
2022-09-25T13:41:57.819Z,1.40
2022-09-25T13:45:14.476Z,2.27
2022-09-25T13:47:54.810Z,1.47
2022-09-25T13:50:36.338Z,1.87
2022-09-25T13:53:20.483Z,1.57
2022-09-25T13:56:14.362Z,1.50
2022-09-25T13:59:24.467Z,2.80
2022-09-25T14:01:55.781Z,1.83
2022-09-25T14:04:34.794Z,1.80
2022-09-25T14:07:22.569Z,1.97
2022-09-25T14:09:54.866Z,1.57
2022-09-25T14:12:32.835Z,2.23
2022-09-25T14:15:05.867Z,1.80
2022-09-25T14:17:35.945Z,2.17
2022-09-25T14:20:11.135Z,1.40
2022-09-25T14:22:46.462Z,1.90
2022-09-25T14:25:28.425Z,1.33
2022-09-25T14:27:56.694Z,1.70
2022-09-25T14:30:29.071Z,1.47
2022-09-25T14:33:42.285Z,1.00
2022-09-25T14:36:22.311Z,1.70
2022-09-25T14:39:11.462Z,1.33
2022-09-25T14:42:18.782Z,1.10
2022-09-25T14:45:20.640Z,1.17
2022-09-25T14:47:51.638Z,1.10
2022-09-25T14:50:23.351Z,2.00
2022-09-25T14:52:55.507Z,1.20
2022-09-25T14:55:24.576Z,1.30
2022-09-25T14:57:53.031Z,2.23
2022-09-25T15:00:24.573Z,1.57
2022-09-25T15:02:55.585Z,1.00
2022-09-25T15:05:32.768Z,0.90
2022-09-25T15:08:03.435Z,0.70
2022-09-25T15:10:33.300Z,1.00
2022-09-25T15:13:09.715Z,1.10
2022-09-25T15:15:39.761Z,1.20
2022-09-25T15:18:13.583Z,1.17
2022-09-25T15:20:48.207Z,1.50
2022-09-25T15:23:21.354Z,1.20
2022-09-25T15:25:51.777Z,1.63
2022-09-25T15:28:22.283Z,1.37
2022-09-25T15:30:57.244Z,1.50
2022-09-25T15:33:27.331Z,0.87
2022-09-25T15:35:56.307Z,1.70
2022-09-25T15:38:32.031Z,1.00
2022-09-25T15:41:00.720Z,1.13
2022-09-25T15:43:30.022Z,0.90
2022-09-25T15:45:59.486Z,1.00
2022-09-25T15:48:32.715Z,1.10
2022-09-25T15:51:03.155Z,1.77
2022-09-25T15:53:36.076Z,1.20
2022-09-25T15:56:15.944Z,1.33
2022-09-25T15:58:49.388Z,1.77
2022-09-25T16:01:39.694Z,1.50
2022-09-25T16:04:27.620Z,0.87
2022-09-25T16:06:55.739Z,1.33
2022-09-25T16:09:31.751Z,1.00
2022-09-25T16:12:20.168Z,1.30
2022-09-25T16:14:48.598Z,1.63
2022-09-25T16:17:23.451Z,2.63
2022-09-25T16:20:02.970Z,2.10
2022-09-25T16:22:36.279Z,1.60
2022-09-25T16:25:17.019Z,1.30
2022-09-25T16:27:46.563Z,1.60
2022-09-25T16:30:18.036Z,1.70
2022-09-25T16:32:48.400Z,1.93
2022-09-25T16:35:25.461Z,1.30
2022-09-25T16:37:54.451Z,1.03
2022-09-25T16:40:28.922Z,1.43
2022-09-25T16:42:58.454Z,1.10
2022-09-25T16:45:29.662Z,1.20
2022-09-25T16:47:59.343Z,1.10
2022-09-25T16:50:33.358Z,1.37
2022-09-25T16:53:03.536Z,1.60
2022-09-25T16:55:38.166Z,2.47
2022-09-25T16:58:10.261Z,2.63
2022-09-25T17:00:38.171Z,3.83
2022-09-25T17:03:06.328Z,2.70
2022-09-25T17:05:36.065Z,1.60
2022-09-25T17:08:17.613Z,2.20
2022-09-25T17:10:49.316Z,1.70
2022-09-25T17:13:19.006Z,2.07
2022-09-25T17:15:47.645Z,1.53
2022-09-25T17:18:19.295Z,1.80
2022-09-25T17:20:47.310Z,1.17
2022-09-25T17:23:16.695Z,1.30
2022-09-25T17:25:48.730Z,1.87
2022-09-25T17:28:17.081Z,1.20
2022-09-25T17:30:45.619Z,1.20
2022-09-25T17:33:16.397Z,1.00
2022-09-25T17:35:49.496Z,0.93
2022-09-25T17:38:17.972Z,1.20
2022-09-25T17:40:50.132Z,1.00
2022-09-25T17:43:18.167Z,1.30
2022-09-25T17:45:49.952Z,2.20
2022-09-25T17:48:23.430Z,1.33
2022-09-25T17:50:52.425Z,2.20
2022-09-25T17:53:23.041Z,2.73
2022-09-25T17:55:53.907Z,3.03
2022-09-25T17:58:23.428Z,2.07
2022-09-25T18:00:52.649Z,1.43
2022-09-25T18:03:22.090Z,1.77
2022-09-25T18:05:50.301Z,2.40
2022-09-25T18:08:18.964Z,2.47
2022-09-25T18:10:47.296Z,2.57
2022-09-25T18:13:20.092Z,2.70
2022-09-25T18:15:50.397Z,4.07
2022-09-25T18:18:18.361Z,3.10
2022-09-25T18:21:08.902Z,2.47
2022-09-25T18:23:38.714Z,1.60
2022-09-25T18:26:09.321Z,1.20
2022-09-25T18:28:38.626Z,1.20
2022-09-25T18:31:07.339Z,2.00
2022-09-25T18:33:35.298Z,1.43
2022-09-25T18:36:03.373Z,1.93
2022-09-25T18:38:31.270Z,1.80
2022-09-25T18:41:02.209Z,1.50
2022-09-25T18:43:30.633Z,1.47
2022-09-25T18:46:00.805Z,1.77
2022-09-25T18:48:29.439Z,1.67
2022-09-25T18:50:57.373Z,1.30
2022-09-25T18:53:25.652Z,2.00
2022-09-25T18:55:54.841Z,2.10
2022-09-25T18:58:22.969Z,1.73
2022-09-25T19:00:51.034Z,1.27
2022-09-25T19:03:20.327Z,1.73
2022-09-25T19:05:58.233Z,1.77
2022-09-25T19:08:26.458Z,1.80
2022-09-25T19:10:54.405Z,1.37
2022-09-25T19:13:22.799Z,1.20
2022-09-25T19:15:50.786Z,1.70
2022-09-25T19:18:20.203Z,2.03
2022-09-25T19:20:51.720Z,1.20
2022-09-25T19:23:19.638Z,1.63
2022-09-25T19:25:55.149Z,1.70
2022-09-25T19:28:24.020Z,1.77
2022-09-25T19:30:59.644Z,1.93
2022-09-25T19:33:30.771Z,2.13
2022-09-25T19:35:59.577Z,1.70
2022-09-25T19:38:27.660Z,1.93
2022-09-25T19:40:55.602Z,1.33
2022-09-25T19:43:24.125Z,2.60
2022-09-25T19:45:53.653Z,1.80
2022-09-25T19:48:22.047Z,1.47
2022-09-25T19:50:51.603Z,1.90
2022-09-25T19:53:19.734Z,1.97
2022-09-25T19:55:51.869Z,2.40
2022-09-25T19:58:23.078Z,2.17
2022-09-25T20:00:52.108Z,1.73
2022-09-25T20:03:20.203Z,1.90
2022-09-25T20:05:48.857Z,1.73
2022-09-25T20:08:18.135Z,1.97
2022-09-25T20:10:46.085Z,1.60
2022-09-25T20:13:14.490Z,2.40
2022-09-25T20:15:44.697Z,3.10
2022-09-25T20:18:12.658Z,2.23
2022-09-25T20:20:40.589Z,1.97
2022-09-25T20:23:09.284Z,2.53
2022-09-25T20:25:39.145Z,2.97
2022-09-25T20:28:07.029Z,2.47
2022-09-25T20:30:35.567Z,2.23
2022-09-25T20:33:04.751Z,2.57
2022-09-25T20:35:32.622Z,2.10
2022-09-25T20:38:00.507Z,1.53
2022-09-25T20:40:28.755Z,2.43
2022-09-25T20:42:58.064Z,2.20
2022-09-25T20:45:26.070Z,2.00
2022-09-25T20:47:55.167Z,2.40
2022-09-25T20:50:23.150Z,2.30
2022-09-25T20:52:51.062Z,3.23
2022-09-25T20:55:20.088Z,2.70
2022-09-25T20:57:48.043Z,1.90
2022-09-25T21:00:19.406Z,1.80
2022-09-25T21:02:47.613Z,3.27
2022-09-25T21:05:16.064Z,2.00
2022-09-25T21:07:43.985Z,2.77
2022-09-25T21:10:11.934Z,2.17
2022-09-25T21:12:39.845Z,3.00
2022-09-25T21:15:08.587Z,2.50
2022-09-25T21:17:37.884Z,3.03
2022-09-25T21:20:06.440Z,2.60
2022-09-25T21:22:35.864Z,2.57
2022-09-25T21:25:03.882Z,3.60
2022-09-25T21:27:31.827Z,3.43
2022-09-25T21:29:59.773Z,3.33
2022-09-25T21:32:29.954Z,3.70
2022-09-25T21:34:59.257Z,4.23
2022-09-25T21:37:27.167Z,4.23
2022-09-25T21:39:55.073Z,2.60
2022-09-25T21:42:23.127Z,2.60
2022-09-25T21:44:51.258Z,3.70
2022-09-25T21:47:19.846Z,2.60
2022-09-25T21:49:47.883Z,3.00
2022-09-25T21:52:17.160Z,3.03
2022-09-25T21:54:45.087Z,2.97
2022-09-25T21:57:13.003Z,2.27
2022-09-25T21:59:41.382Z,3.20
2022-09-25T22:02:09.838Z,2.20
2022-09-25T22:04:37.747Z,2.33
2022-09-25T22:07:05.645Z,2.30
2022-09-25T22:09:35.082Z,1.80
2022-09-25T22:12:03.178Z,2.33
2022-09-25T22:14:31.244Z,2.30
2022-09-25T22:16:59.206Z,2.70
2022-09-25T22:19:29.861Z,2.80
2022-09-25T22:21:59.362Z,2.63
2022-09-25T22:24:27.601Z,2.60
2022-09-25T22:26:57.364Z,2.60
2022-09-25T22:29:25.908Z,2.53
2022-09-25T22:31:54.035Z,2.07
2022-09-25T22:34:23.695Z,2.53
2022-09-25T22:36:56.424Z,2.50
2022-09-25T22:39:27.636Z,2.30
2022-09-25T22:41:57.422Z,2.50
2022-09-25T22:44:26.035Z,3.23
2022-09-25T22:46:53.985Z,3.47
2022-09-25T22:49:21.919Z,3.57
2022-09-25T22:51:49.853Z,2.57
2022-09-25T22:54:18.009Z,3.07
2022-09-25T22:56:45.924Z,3.40
2022-09-25T22:59:18.116Z,3.30
2022-09-25T23:01:48.746Z,2.20
2022-09-25T23:04:18.972Z,2.80
2022-09-25T23:06:46.921Z,2.23
2022-09-25T23:09:16.737Z,2.50
2022-09-25T23:11:45.523Z,3.80
2022-09-25T23:14:19.447Z,3.20
2022-09-25T23:16:49.401Z,3.73
2022-09-25T23:19:18.142Z,2.97
2022-09-25T23:21:46.519Z,2.67
2022-09-25T23:24:16.349Z,1.90
2022-09-25T23:26:44.369Z,2.43
2022-09-25T23:29:13.431Z,3.37
2022-09-25T23:31:43.185Z,2.63
2022-09-25T23:34:11.825Z,2.53
2022-09-25T23:36:40.244Z,2.90
2022-09-25T23:39:09.521Z,2.03
2022-09-25T23:41:39.861Z,2.13
2022-09-25T23:44:09.961Z,2.27
2022-09-25T23:46:39.735Z,3.07
2022-09-25T23:49:09.683Z,2.70
2022-09-25T23:51:37.992Z,2.50
2022-09-25T23:54:06.420Z,2.30
2022-09-25T23:56:35.574Z,3.80
2022-09-25T23:59:04.605Z,3.27
